Overview Statistics Trail Chart Weather Telemetry Raw packets
 

This is the latest recevied weather packets stored in our database for station/object HB9GPU-10. If no packets are shown the sender has not sent any weather packets the latest 10 day(s).

<< 7 8 9 10 11 12 13 >>
Time Temp. Humidity Pressure Rain* Wind** Luminosity Snow
1788469445 24.44° C 31% 1028.1 hPa - - - -
1788468545 24.44° C 31% 1027.8 hPa - - - -
1788467645 25° C 32% 1027.7 hPa - - - -
1788466745 25° C 32% 1027.6 hPa - - - -
1788465844 25° C 33% 1027.5 hPa - - - -
1788464944 25° C 33% 1027.4 hPa - - - -
1788464044 25° C 33% 1027.3 hPa - - - -
1788463144 24.44° C 34% 1027.2 hPa - - - -
1788462244 25° C 33% 1027.1 hPa - - - -
1788461344 25° C 34% 1027 hPa - - - -
1788460443 23.89° C 37% 1026.8 hPa - - - -
1788459543 24.44° C 36% 1026.8 hPa - - - -
1788458643 24.44° C 35% 1026.6 hPa - - - -
1788457743 25° C 35% 1026.6 hPa - - - -
1788456843 25.56° C 34% 1026.5 hPa - - - -
1788455942 25.56° C 34% 1026.4 hPa - - - -
1788455042 26.11° C 32% 1026.4 hPa - - - -
1788454142 26.11° C 32% 1026.3 hPa - - - -
1788453242 25.56° C 32% 1026.2 hPa - - - -
1788452342 26.11° C 30% 1026.3 hPa - - - -
1788451441 25.56° C 29% 1026.2 hPa - - - -
1788450541 26.67° C 28% 1026.1 hPa - - - -
1788449641 26.67° C 28% 1026.1 hPa - - - -
1788448741 26.11° C 30% 1026.3 hPa - - - -
1788447841 26.67° C 29% 1026.4 hPa - - - -

* Rain since midnight (hover to see other rain measurements)
** Current wind speed in m/s (hover to see current wind gust speed)